createdAt,value
2022-12-23T00:00:43.000Z,2583.0
2022-12-23T00:01:42.000Z,2523.0
2022-12-23T00:02:42.000Z,2600.0
2022-12-23T00:03:43.000Z,2673.0
2022-12-23T00:04:42.000Z,2712.0
2022-12-23T00:05:42.000Z,2876.0
2022-12-23T00:06:43.000Z,2871.0
2022-12-23T00:07:42.000Z,2897.0
2022-12-23T00:08:43.000Z,3016.0
2022-12-23T00:09:42.000Z,2890.0
2022-12-23T00:10:42.000Z,2891.0
2022-12-23T00:11:43.000Z,2724.0
2022-12-23T00:12:42.000Z,2736.0
2022-12-23T00:13:42.000Z,2710.0
2022-12-23T00:14:43.000Z,2643.0
2022-12-23T00:15:42.000Z,2476.0
2022-12-23T00:16:43.000Z,2353.0
2022-12-23T00:17:42.000Z,2336.0
2022-12-23T00:18:42.000Z,2289.0
2022-12-23T00:19:43.000Z,2291.0
2022-12-23T00:20:42.000Z,2219.0
2022-12-23T00:21:42.000Z,2382.0
2022-12-23T00:22:42.000Z,2406.0
2022-12-23T00:23:42.000Z,2465.0
2022-12-23T00:24:43.000Z,2670.0
2022-12-23T00:25:42.000Z,2396.0
2022-12-23T00:26:42.000Z,2473.0
2022-12-23T00:27:43.000Z,2227.0
2022-12-23T00:28:42.000Z,2236.0
2022-12-23T00:29:43.000Z,2583.0
2022-12-23T00:30:42.000Z,2783.0
2022-12-23T00:31:42.000Z,2471.0
2022-12-23T00:32:43.000Z,2100.0
2022-12-23T00:33:42.000Z,1562.0
2022-12-23T00:34:43.000Z,1569.0
2022-12-23T00:35:42.000Z,2000.0
2022-12-23T00:36:42.000Z,2105.0
2022-12-23T00:37:43.000Z,2380.0
2022-12-23T00:38:42.000Z,2476.0
2022-12-23T00:39:42.000Z,2192.0
2022-12-23T00:40:43.000Z,2565.0
2022-12-23T00:41:42.000Z,2762.0
2022-12-23T00:42:43.000Z,2601.0
2022-12-23T00:43:42.000Z,2846.0
2022-12-23T00:44:42.000Z,2755.0
2022-12-23T00:45:43.000Z,2727.0
2022-12-23T00:46:42.000Z,2256.0
2022-12-23T00:47:42.000Z,2327.0
2022-12-23T00:48:42.000Z,1769.0
2022-12-23T00:49:42.000Z,1117.0
2022-12-23T00:50:43.000Z,1136.0
2022-12-23T00:51:42.000Z,1629.0
2022-12-23T00:52:42.000Z,2044.0
2022-12-23T00:53:43.000Z,2138.0
2022-12-23T00:54:42.000Z,2202.0
2022-12-23T00:55:43.000Z,1710.0
2022-12-23T00:56:42.000Z,1645.0
2022-12-23T00:57:42.000Z,1853.0
2022-12-23T00:58:43.000Z,1509.0
2022-12-23T00:59:42.000Z,1587.0
2022-12-23T01:00:42.000Z,1584.0
2022-12-23T01:01:43.000Z,1849.0
2022-12-23T01:02:42.000Z,1940.0
2022-12-23T01:03:42.000Z,2035.0
2022-12-23T01:04:43.000Z,2312.0
2022-12-23T01:05:42.000Z,2063.0
2022-12-23T01:06:43.000Z,2052.0
2022-12-23T01:07:42.000Z,1639.0
2022-12-23T01:08:42.000Z,1173.0
2022-12-23T01:09:43.000Z,777.0
2022-12-23T01:10:42.000Z,1249.0
2022-12-23T01:11:42.000Z,1483.0
2022-12-23T01:12:42.000Z,1664.0
2022-12-23T01:13:42.000Z,1800.0
2022-12-23T01:14:43.000Z,1068.0
2022-12-23T01:15:42.000Z,421.0
2022-12-23T01:16:42.000Z,439.0
2022-12-23T01:17:43.000Z,566.0
2022-12-23T01:18:42.000Z,525.0
2022-12-23T01:19:43.000Z,957.0
2022-12-23T01:20:42.000Z,1250.0
2022-12-23T01:21:42.000Z,1487.0
2022-12-23T01:22:43.000Z,1346.0
2022-12-23T01:23:42.000Z,965.0
2022-12-23T01:24:42.000Z,1131.0
2022-12-23T01:25:42.000Z,1457.0
2022-12-23T01:26:42.000Z,1076.0
2022-12-23T01:27:43.000Z,516.0
2022-12-23T01:28:42.000Z,1021.0
2022-12-23T01:29:42.000Z,1190.0
2022-12-23T01:30:43.000Z,946.0
2022-12-23T01:31:42.000Z,1178.0
2022-12-23T01:32:43.000Z,750.0
2022-12-23T01:33:42.000Z,1051.0
2022-12-23T01:34:42.000Z,691.0
2022-12-23T01:35:43.000Z,797.0
2022-12-23T01:36:42.000Z,1162.0
2022-12-23T01:37:42.000Z,1403.0
2022-12-23T01:38:42.000Z,1371.0
2022-12-23T01:39:42.000Z,1402.0
2022-12-23T01:40:43.000Z,986.0
2022-12-23T01:41:42.000Z,1270.0
2022-12-23T01:42:42.000Z,1206.0
2022-12-23T01:43:43.000Z,1249.0
2022-12-23T01:44:42.000Z,1207.0
2022-12-23T01:45:43.000Z,457.0
2022-12-23T01:46:42.000Z,394.0
2022-12-23T01:47:42.000Z,460.0
2022-12-23T01:48:43.000Z,531.0
2022-12-23T01:49:42.000Z,817.0
2022-12-23T01:50:42.000Z,1275.0
2022-12-23T01:51:42.000Z,1621.0
2022-12-23T01:52:42.000Z,752.0
2022-12-23T01:53:43.000Z,1094.0
2022-12-23T01:54:42.000Z,1432.0
2022-12-23T01:55:42.000Z,1321.0
2022-12-23T01:56:43.000Z,1532.0
2022-12-23T01:57:42.000Z,1898.0
2022-12-23T01:58:43.000Z,2403.0
2022-12-23T01:59:43.000Z,1191.0
2022-12-23T02:00:42.000Z,1063.0
2022-12-23T02:01:42.000Z,1222.0
2022-12-23T02:02:42.000Z,1636.0
2022-12-23T02:03:42.000Z,2264.0
2022-12-23T02:04:43.000Z,2484.0
2022-12-23T02:05:42.000Z,2569.0
2022-12-23T02:06:42.000Z,2498.0
2022-12-23T02:07:43.000Z,1423.0
2022-12-23T02:08:42.000Z,1191.0
2022-12-23T02:09:43.000Z,1632.0
2022-12-23T02:10:42.000Z,2088.0
2022-12-23T02:11:42.000Z,2559.0
2022-12-23T02:12:43.000Z,2826.0
2022-12-23T02:13:42.000Z,2950.0
2022-12-23T02:14:42.000Z,3284.0
2022-12-23T02:15:42.000Z,3274.0
2022-12-23T02:16:42.000Z,3344.0
2022-12-23T02:17:43.000Z,3331.0
2022-12-23T02:18:42.000Z,3013.0
2022-12-23T02:19:42.000Z,2734.0
2022-12-23T02:20:43.000Z,2819.0
2022-12-23T02:21:42.000Z,2905.0
2022-12-23T02:22:42.000Z,3333.0
2022-12-23T02:23:42.000Z,3907.0
2022-12-23T02:24:42.000Z,3238.0
2022-12-23T02:25:43.000Z,2218.0
2022-12-23T02:26:42.000Z,2785.0
2022-12-23T02:27:42.000Z,3344.0
2022-12-23T02:28:42.000Z,3634.0
2022-12-23T02:29:42.000Z,4144.0
2022-12-23T02:30:43.000Z,4594.0
2022-12-23T02:31:42.000Z,4266.0
2022-12-23T02:32:42.000Z,4293.0
2022-12-23T02:33:43.000Z,4761.0
2022-12-23T02:34:42.000Z,5248.0
2022-12-23T02:35:43.000Z,5390.0
2022-12-23T02:36:42.000Z,5787.0
2022-12-23T02:37:42.000Z,5401.0
2022-12-23T02:38:43.000Z,5262.0
2022-12-23T02:39:42.000Z,3758.0
2022-12-23T02:40:42.000Z,4258.0
2022-12-23T02:41:42.000Z,4362.0
2022-12-23T02:42:42.000Z,3971.0
2022-12-23T02:43:43.000Z,4657.0
2022-12-23T02:44:42.000Z,5255.0
2022-12-23T02:45:42.000Z,3144.0
2022-12-23T02:46:43.000Z,3672.0
2022-12-23T02:47:42.000Z,3921.0
2022-12-23T02:48:42.000Z,4607.0
2022-12-23T02:49:42.000Z,5468.0
2022-12-23T02:50:42.000Z,6216.0
2022-12-23T02:51:43.000Z,6074.0
2022-12-23T02:52:42.000Z,5870.0
2022-12-23T02:53:42.000Z,6524.0
2022-12-23T02:54:43.000Z,7143.0
2022-12-23T02:55:42.000Z,6970.0
2022-12-23T02:56:43.000Z,7140.0
2022-12-23T02:57:42.000Z,7261.0
2022-12-23T02:58:42.000Z,8066.0
2022-12-23T02:59:43.000Z,8822.0
2022-12-23T03:00:42.000Z,9645.0
2022-12-23T03:01:42.000Z,10286.0
2022-12-23T03:02:43.000Z,10327.0
2022-12-23T03:03:42.000Z,11612.0
2022-12-23T03:04:42.000Z,11180.0
2022-12-23T03:05:43.000Z,9982.0
2022-12-23T03:06:42.000Z,10227.0
2022-12-23T03:07:43.000Z,9612.0
2022-12-23T03:08:42.000Z,9212.0
2022-12-23T03:09:42.000Z,8550.0
2022-12-23T03:10:43.000Z,8183.0
2022-12-23T03:11:42.000Z,7475.0
2022-12-23T03:12:42.000Z,6995.0
2022-12-23T03:13:42.000Z,5459.0
2022-12-23T03:14:42.000Z,5774.0
2022-12-23T03:15:43.000Z,5946.0
2022-12-23T03:16:42.000Z,5984.0
2022-12-23T03:17:42.000Z,5527.0
2022-12-23T03:18:42.000Z,4970.0
2022-12-23T03:19:42.000Z,5340.0
2022-12-23T03:20:43.000Z,6456.0
2022-12-23T03:21:42.000Z,6548.0
2022-12-23T03:22:42.000Z,6982.0
2022-12-23T03:23:43.000Z,6698.0
2022-12-23T03:24:42.000Z,7146.0
2022-12-23T03:25:42.000Z,7320.0
2022-12-23T03:26:42.000Z,8248.0
2022-12-23T03:27:42.000Z,8687.0
2022-12-23T03:28:43.000Z,9150.0
2022-12-23T03:29:42.000Z,10062.0
2022-12-23T03:30:42.000Z,10046.0
2022-12-23T03:31:43.000Z,9636.0
2022-12-23T03:32:42.000Z,10143.0
2022-12-23T03:33:43.000Z,9358.0
2022-12-23T03:34:42.000Z,9097.0
2022-12-23T03:35:42.000Z,8773.0
2022-12-23T03:36:43.000Z,8904.0
2022-12-23T03:37:42.000Z,8597.0
2022-12-23T03:38:42.000Z,9161.0
2022-12-23T03:39:42.000Z,8787.0
2022-12-23T03:40:42.000Z,8506.0
2022-12-23T03:41:43.000Z,7436.0
2022-12-23T03:42:42.000Z,6708.0
2022-12-23T03:43:42.000Z,6305.0
2022-12-23T03:44:42.000Z,6200.0
2022-12-23T03:45:42.000Z,6007.0
2022-12-23T03:46:43.000Z,5641.0
2022-12-23T03:47:42.000Z,5673.0
2022-12-23T03:48:42.000Z,5551.0
2022-12-23T03:49:43.000Z,4900.0
2022-12-23T03:50:42.000Z,4780.0
2022-12-23T03:51:42.000Z,4641.0
2022-12-23T03:52:42.000Z,4375.0
2022-12-23T03:53:42.000Z,4368.0
2022-12-23T03:54:43.000Z,4253.0
2022-12-23T03:55:42.000Z,3727.0
2022-12-23T03:56:42.000Z,3519.0
2022-12-23T03:57:43.000Z,3873.0
2022-12-23T03:58:42.000Z,3771.0
2022-12-23T03:59:42.000Z,3795.0
2022-12-23T04:00:43.000Z,4009.0
2022-12-23T04:01:42.000Z,3988.0
2022-12-23T04:02:42.000Z,3815.0
2022-12-23T04:03:42.000Z,3709.0
2022-12-23T04:04:42.000Z,3288.0
2022-12-23T04:05:43.000Z,3625.0
2022-12-23T04:06:42.000Z,3616.0
2022-12-23T04:07:42.000Z,3769.0
2022-12-23T04:08:43.000Z,3706.0
2022-12-23T04:09:42.000Z,3819.0
2022-12-23T04:10:42.000Z,4123.0
2022-12-23T04:11:42.000Z,4414.0
2022-12-23T04:12:42.000Z,4512.0
2022-12-23T04:13:43.000Z,4507.0
2022-12-23T04:14:42.000Z,4433.0
2022-12-23T04:15:42.000Z,3581.0
2022-12-23T04:16:42.000Z,3174.0
2022-12-23T04:17:42.000Z,3391.0
2022-12-23T04:18:43.000Z,3628.0
2022-12-23T04:19:42.000Z,3897.0
2022-12-23T04:20:42.000Z,3816.0
2022-12-23T04:21:43.000Z,3813.0
2022-12-23T04:22:42.000Z,3583.0
2022-12-23T04:23:42.000Z,3379.0
2022-12-23T04:24:42.000Z,3266.0
2022-12-23T04:25:42.000Z,3190.0
2022-12-23T04:26:43.000Z,3052.0
2022-12-23T04:27:42.000Z,3185.0
2022-12-23T04:28:42.000Z,3356.0
2022-12-23T04:29:42.000Z,3437.0
2022-12-23T04:30:42.000Z,3547.0
2022-12-23T04:31:43.000Z,2883.0
2022-12-23T04:32:42.000Z,2277.0
2022-12-23T04:33:42.000Z,2608.0
2022-12-23T04:34:43.000Z,2924.0
2022-12-23T04:35:42.000Z,3058.0
2022-12-23T04:36:42.000Z,1152.0
2022-12-23T04:37:42.000Z,480.0
2022-12-23T04:38:42.000Z,431.0
2022-12-23T04:39:43.000Z,643.0
2022-12-23T04:40:42.000Z,889.0
2022-12-23T04:41:42.000Z,1061.0
2022-12-23T04:42:43.000Z,1202.0
2022-12-23T04:43:42.000Z,1207.0
2022-12-23T04:44:43.000Z,1100.0
2022-12-23T04:45:42.000Z,1494.0
2022-12-23T04:46:42.000Z,1807.0
2022-12-23T04:47:43.000Z,2205.0
2022-12-23T04:48:42.000Z,2045.0
2022-12-23T04:49:42.000Z,2148.0
2022-12-23T04:50:42.000Z,2335.0
2022-12-23T04:51:42.000Z,2589.0
2022-12-23T04:52:43.000Z,3139.0
2022-12-23T04:53:42.000Z,3618.0
2022-12-23T04:54:42.000Z,3981.0
2022-12-23T04:55:42.000Z,4288.0
2022-12-23T04:56:42.000Z,4678.0
2022-12-23T04:57:43.000Z,5044.0
2022-12-23T04:58:42.000Z,5511.0
2022-12-23T04:59:42.000Z,5715.0
2022-12-23T05:00:43.000Z,5263.0
2022-12-23T05:01:42.000Z,4727.0
2022-12-23T05:02:42.000Z,5177.0
2022-12-23T05:03:43.000Z,5067.0
2022-12-23T05:04:42.000Z,4983.0
2022-12-23T05:05:42.000Z,5060.0
2022-12-23T05:06:42.000Z,4798.0
2022-12-23T05:07:42.000Z,4849.0
2022-12-23T05:08:43.000Z,5012.0
2022-12-23T05:09:42.000Z,4829.0
2022-12-23T05:10:42.000Z,4388.0
2022-12-23T05:11:43.000Z,4007.0
2022-12-23T05:12:42.000Z,4354.0
2022-12-23T05:13:42.000Z,4598.0
2022-12-23T05:14:42.000Z,4899.0
2022-12-23T05:15:42.000Z,4933.0
2022-12-23T05:16:43.000Z,5380.0
2022-12-23T05:17:42.000Z,5458.0
2022-12-23T05:18:42.000Z,5281.0
2022-12-23T05:19:43.000Z,5295.0
2022-12-23T05:20:42.000Z,5162.0
2022-12-23T05:21:42.000Z,5203.0
2022-12-23T05:22:42.000Z,5018.0
2022-12-23T05:23:42.000Z,5665.0
2022-12-23T05:24:43.000Z,5811.0
2022-12-23T05:25:42.000Z,5675.0
2022-12-23T05:26:42.000Z,5819.0
2022-12-23T05:27:42.000Z,5582.0
2022-12-23T05:28:42.000Z,5255.0
2022-12-23T05:29:43.000Z,4735.0
2022-12-23T05:30:42.000Z,4269.0
2022-12-23T05:31:42.000Z,3942.0
2022-12-23T05:32:43.000Z,4404.0
2022-12-23T05:33:42.000Z,3405.0
2022-12-23T05:34:42.000Z,3865.0
2022-12-23T05:35:42.000Z,3803.0
2022-12-23T05:36:42.000Z,3507.0
2022-12-23T05:37:43.000Z,3856.0
2022-12-23T05:38:42.000Z,4041.0
2022-12-23T05:39:42.000Z,4238.0
2022-12-23T05:40:42.000Z,4342.0
2022-12-23T05:41:42.000Z,4137.0
2022-12-23T05:42:43.000Z,4003.0
2022-12-23T05:43:42.000Z,4167.0
2022-12-23T05:44:42.000Z,3918.0
2022-12-23T05:45:43.000Z,3607.0
2022-12-23T05:46:42.000Z,3677.0
2022-12-23T05:47:42.000Z,3344.0
2022-12-23T05:48:42.000Z,3541.0
2022-12-23T05:49:42.000Z,3925.0
2022-12-23T05:50:43.000Z,4030.0
2022-12-23T05:51:42.000Z,3964.0
2022-12-23T05:52:42.000Z,3418.0
2022-12-23T05:53:42.000Z,3116.0
2022-12-23T05:54:42.000Z,3107.0
2022-12-23T05:55:43.000Z,3265.0
2022-12-23T05:56:42.000Z,3427.0
2022-12-23T05:57:42.000Z,3595.0
2022-12-23T05:58:43.000Z,3442.0
2022-12-23T05:59:42.000Z,3369.0
2022-12-23T06:00:42.000Z,3501.0
2022-12-23T06:01:43.000Z,3540.0
2022-12-23T06:02:42.000Z,3216.0
2022-12-23T06:03:42.000Z,3304.0
2022-12-23T06:04:42.000Z,3466.0
2022-12-23T06:05:42.000Z,3585.0
2022-12-23T06:06:43.000Z,3592.0
2022-12-23T06:07:42.000Z,3585.0
2022-12-23T06:08:42.000Z,3548.0
2022-12-23T06:09:43.000Z,3512.0
2022-12-23T06:10:42.000Z,3428.0
2022-12-23T06:11:42.000Z,3528.0
2022-12-23T06:12:42.000Z,3535.0
2022-12-23T06:13:42.000Z,3699.0
2022-12-23T06:14:43.000Z,3394.0
2022-12-23T06:15:42.000Z,3493.0
2022-12-23T06:16:42.000Z,3510.0
2022-12-23T06:17:42.000Z,3474.0
2022-12-23T06:18:42.000Z,3702.0
2022-12-23T06:19:43.000Z,3768.0
2022-12-23T06:20:42.000Z,3703.0
2022-12-23T06:21:42.000Z,3517.0
2022-12-23T06:22:43.000Z,3133.0
2022-12-23T06:23:42.000Z,2948.0
2022-12-23T06:24:42.000Z,3004.0
2022-12-23T06:25:42.000Z,3045.0
2022-12-23T06:26:42.000Z,2925.0
2022-12-23T06:27:43.000Z,2994.0
2022-12-23T06:28:42.000Z,3072.0
2022-12-23T06:29:42.000Z,2882.0
2022-12-23T06:30:43.000Z,2728.0
2022-12-23T06:31:42.000Z,2718.0
2022-12-23T06:32:43.000Z,2593.0
2022-12-23T06:33:42.000Z,2562.0
2022-12-23T06:34:42.000Z,2681.0
2022-12-23T06:35:43.000Z,2689.0
2022-12-23T06:36:42.000Z,2693.0
2022-12-23T06:37:42.000Z,2697.0
2022-12-23T06:38:42.000Z,2669.0
2022-12-23T06:39:42.000Z,2806.0
2022-12-23T06:40:43.000Z,2844.0
2022-12-23T06:41:42.000Z,2731.0
2022-12-23T06:42:42.000Z,2669.0
2022-12-23T06:43:42.000Z,2521.0
2022-12-23T06:44:42.000Z,2359.0
2022-12-23T06:45:43.000Z,1535.0
2022-12-23T06:46:42.000Z,779.0
2022-12-23T06:47:42.000Z,1247.0
2022-12-23T06:48:43.000Z,1713.0
2022-12-23T06:49:42.000Z,2129.0
2022-12-23T06:50:42.000Z,2214.0
2022-12-23T06:51:42.000Z,2290.0
2022-12-23T06:52:42.000Z,2412.0
2022-12-23T06:53:43.000Z,2363.0
2022-12-23T06:54:42.000Z,2220.0
2022-12-23T06:55:42.000Z,1636.0
2022-12-23T06:56:43.000Z,1480.0
2022-12-23T06:57:42.000Z,1657.0
2022-12-23T06:58:43.000Z,1094.0
2022-12-23T06:59:42.000Z,534.0
2022-12-23T07:00:42.000Z,873.0
2022-12-23T07:01:43.000Z,815.0
2022-12-23T07:02:42.000Z,954.0
2022-12-23T07:03:42.000Z,1231.0
2022-12-23T07:04:43.000Z,726.0
2022-12-23T07:05:42.000Z,627.0
2022-12-23T07:06:42.000Z,953.0
2022-12-23T07:07:42.000Z,1220.0
2022-12-23T07:08:42.000Z,832.0
2022-12-23T07:09:43.000Z,1096.0
2022-12-23T07:10:42.000Z,1309.0
2022-12-23T07:11:42.000Z,1511.0
2022-12-23T07:12:43.000Z,1581.0
2022-12-23T07:13:42.000Z,1387.0
2022-12-23T07:14:42.000Z,1157.0
2022-12-23T07:15:42.000Z,798.0
2022-12-23T07:16:42.000Z,868.0
2022-12-23T07:17:43.000Z,512.0
2022-12-23T07:18:42.000Z,462.0
2022-12-23T07:19:42.000Z,903.0
2022-12-23T07:20:42.000Z,1260.0
2022-12-23T07:21:42.000Z,1472.0
2022-12-23T07:22:42.000Z,353.0
2022-12-23T07:23:42.000Z,524.0
2022-12-23T07:24:42.000Z,663.0
2022-12-23T07:25:43.000Z,830.0
2022-12-23T07:26:42.000Z,1186.0
2022-12-23T07:27:42.000Z,1447.0
2022-12-23T07:28:42.000Z,1642.0
2022-12-23T07:29:42.000Z,1823.0
2022-12-23T07:30:43.000Z,2008.0
2022-12-23T07:31:42.000Z,2098.0
2022-12-23T07:32:42.000Z,2112.0
2022-12-23T07:33:43.000Z,2017.0
2022-12-23T07:34:42.000Z,2038.0
2022-12-23T07:35:43.000Z,1988.0
2022-12-23T07:36:42.000Z,1886.0
2022-12-23T07:37:42.000Z,2011.0
2022-12-23T07:38:43.000Z,1802.0
2022-12-23T07:39:42.000Z,1817.0
2022-12-23T07:40:42.000Z,1815.0
2022-12-23T07:41:42.000Z,1853.0
2022-12-23T07:43:43.000Z,552.0
2022-12-23T07:44:42.000Z,454.0
2022-12-23T07:45:42.000Z,525.0
2022-12-23T07:46:43.000Z,469.0
2022-12-23T07:47:42.000Z,410.0
2022-12-23T07:48:42.000Z,365.0
2022-12-23T07:49:42.000Z,673.0
2022-12-23T07:50:42.000Z,989.0
2022-12-23T07:51:43.000Z,794.0
2022-12-23T07:52:42.000Z,888.0
2022-12-23T07:53:42.000Z,547.0
2022-12-23T07:54:42.000Z,486.0
2022-12-23T07:55:42.000Z,615.0
2022-12-23T07:56:43.000Z,520.0
2022-12-23T07:57:42.000Z,468.0
2022-12-23T07:58:42.000Z,391.0
2022-12-23T07:59:43.000Z,349.0
2022-12-23T08:00:42.000Z,305.0
2022-12-23T08:01:42.000Z,381.0
2022-12-23T08:02:43.000Z,369.0
2022-12-23T08:03:42.000Z,569.0
2022-12-23T08:04:42.000Z,640.0
2022-12-23T08:05:42.000Z,1010.0
2022-12-23T08:06:42.000Z,611.0
2022-12-23T08:07:43.000Z,520.0
2022-12-23T08:08:42.000Z,919.0
2022-12-23T08:09:42.000Z,456.0
2022-12-23T08:10:43.000Z,598.0
2022-12-23T08:11:42.000Z,1107.0
2022-12-23T08:12:42.000Z,563.0
2022-12-23T08:13:42.000Z,553.0
2022-12-23T08:14:42.000Z,800.0
2022-12-23T08:15:43.000Z,696.0
2022-12-23T08:16:42.000Z,737.0
2022-12-23T08:17:42.000Z,1013.0
2022-12-23T08:18:42.000Z,818.0
2022-12-23T08:19:42.000Z,1054.0
2022-12-23T08:20:43.000Z,1478.0
2022-12-23T08:21:42.000Z,1556.0
2022-12-23T08:22:42.000Z,1626.0
2022-12-23T08:23:43.000Z,1589.0
2022-12-23T08:24:42.000Z,1764.0
2022-12-23T08:25:42.000Z,1918.0
2022-12-23T08:26:42.000Z,2112.0
2022-12-23T08:27:42.000Z,2188.0
2022-12-23T08:28:43.000Z,2188.0
2022-12-23T08:29:42.000Z,2271.0
2022-12-23T08:30:42.000Z,2380.0
2022-12-23T08:31:42.000Z,2455.0
2022-12-23T08:32:42.000Z,2374.0
2022-12-23T08:33:43.000Z,2646.0
2022-12-23T08:34:42.000Z,2695.0
2022-12-23T08:35:42.000Z,2570.0
2022-12-23T08:36:43.000Z,2689.0
2022-12-23T08:37:42.000Z,2504.0
2022-12-23T08:38:42.000Z,2819.0
2022-12-23T08:39:42.000Z,3094.0
2022-12-23T08:40:42.000Z,3281.0
2022-12-23T08:41:43.000Z,3195.0
2022-12-23T08:42:42.000Z,3245.0
2022-12-23T08:43:42.000Z,2533.0
2022-12-23T08:44:42.000Z,2499.0
2022-12-23T08:45:42.000Z,2157.0
2022-12-23T08:46:43.000Z,2177.0
2022-12-23T08:47:42.000Z,2495.0
2022-12-23T08:48:42.000Z,2756.0
2022-12-23T08:49:43.000Z,2962.0
2022-12-23T08:50:42.000Z,3064.0
2022-12-23T08:51:42.000Z,3268.0
2022-12-23T08:52:42.000Z,3347.0
2022-12-23T08:53:42.000Z,3373.0
2022-12-23T08:54:43.000Z,3275.0
2022-12-23T08:55:42.000Z,3152.0
2022-12-23T08:56:42.000Z,2706.0
2022-12-23T08:57:42.000Z,2588.0
2022-12-23T08:58:42.000Z,2480.0
2022-12-23T08:59:42.000Z,983.0
2022-12-23T09:00:42.000Z,680.0
2022-12-23T09:01:42.000Z,1084.0
2022-12-23T09:02:42.000Z,1456.0
2022-12-23T09:03:42.000Z,1641.0
2022-12-23T09:04:42.000Z,1704.0
2022-12-23T09:05:43.000Z,1749.0
2022-12-23T09:06:42.000Z,1732.0
2022-12-23T09:07:42.000Z,1822.0
2022-12-23T09:08:42.000Z,1887.0
2022-12-23T09:09:42.000Z,2032.0
2022-12-23T09:10:42.000Z,2034.0
2022-12-23T09:11:42.000Z,1910.0
2022-12-23T09:12:42.000Z,1870.0
2022-12-23T09:13:43.000Z,1937.0
2022-12-23T09:14:42.000Z,1741.0
2022-12-23T09:15:42.000Z,1896.0
2022-12-23T09:16:42.000Z,1966.0
2022-12-23T09:17:42.000Z,2078.0
2022-12-23T09:18:43.000Z,1628.0
2022-12-23T09:19:42.000Z,1726.0
2022-12-23T09:20:42.000Z,1465.0
2022-12-23T09:21:43.000Z,1717.0
2022-12-23T09:22:42.000Z,1895.0
2022-12-23T09:23:42.000Z,1695.0
2022-12-23T09:24:42.000Z,1582.0
2022-12-23T09:25:42.000Z,1608.0
2022-12-23T09:26:43.000Z,1813.0
2022-12-23T09:27:42.000Z,2036.0
2022-12-23T09:28:42.000Z,2301.0
2022-12-23T09:29:42.000Z,2635.0
2022-12-23T09:30:42.000Z,2641.0
2022-12-23T09:31:43.000Z,2435.0
2022-12-23T09:32:42.000Z,2359.0
2022-12-23T09:33:42.000Z,2499.0
2022-12-23T09:34:43.000Z,2732.0
2022-12-23T09:35:42.000Z,2835.0
2022-12-23T09:36:42.000Z,2960.0
2022-12-23T09:37:42.000Z,3021.0
2022-12-23T09:38:42.000Z,3057.0
2022-12-23T09:39:43.000Z,3197.0
2022-12-23T09:40:42.000Z,3230.0
2022-12-23T09:41:42.000Z,3325.0
2022-12-23T09:42:42.000Z,3284.0
2022-12-23T09:43:42.000Z,3330.0
2022-12-23T09:44:43.000Z,3345.0
2022-12-23T09:45:42.000Z,3528.0
2022-12-23T09:46:42.000Z,3501.0
2022-12-23T09:47:43.000Z,3540.0
2022-12-23T09:48:42.000Z,3521.0
2022-12-23T09:49:42.000Z,3632.0
2022-12-23T09:50:42.000Z,3734.0
2022-12-23T09:51:42.000Z,3780.0
2022-12-23T09:52:43.000Z,3872.0
2022-12-23T09:53:42.000Z,3917.0
2022-12-23T09:54:42.000Z,4098.0
2022-12-23T09:55:42.000Z,4085.0
2022-12-23T09:56:42.000Z,4062.0
2022-12-23T09:57:43.000Z,4067.0
2022-12-23T09:58:42.000Z,4057.0
2022-12-23T09:59:42.000Z,4155.0
2022-12-23T10:00:43.000Z,4024.0
2022-12-23T10:01:42.000Z,4052.0
2022-12-23T10:02:42.000Z,3853.0
2022-12-23T10:03:43.000Z,3878.0
2022-12-23T10:04:42.000Z,4044.0
2022-12-23T10:05:42.000Z,4204.0
2022-12-23T10:06:42.000Z,4067.0
2022-12-23T10:07:42.000Z,4196.0
2022-12-23T10:08:43.000Z,4268.0
2022-12-23T10:09:42.000Z,4386.0
2022-12-23T10:10:42.000Z,4377.0
2022-12-23T10:11:43.000Z,4432.0
2022-12-23T10:12:42.000Z,4372.0
2022-12-23T10:13:42.000Z,4492.0
2022-12-23T10:14:42.000Z,4679.0
2022-12-23T10:15:42.000Z,4790.0
2022-12-23T10:16:43.000Z,5085.0
2022-12-23T10:17:42.000Z,4781.0
2022-12-23T10:18:42.000Z,4466.0
2022-12-23T10:19:42.000Z,4278.0
2022-12-23T10:20:42.000Z,4156.0
2022-12-23T10:21:42.000Z,4254.0
2022-12-23T10:22:42.000Z,4292.0
2022-12-23T10:23:42.000Z,4484.0
2022-12-23T10:24:43.000Z,4499.0
2022-12-23T10:25:42.000Z,4326.0
2022-12-23T10:26:42.000Z,4270.0
2022-12-23T10:27:42.000Z,4245.0
2022-12-23T10:28:42.000Z,4374.0
2022-12-23T10:29:43.000Z,4365.0
2022-12-23T10:30:42.000Z,4216.0
2022-12-23T10:31:42.000Z,4038.0
2022-12-23T10:32:43.000Z,3903.0
2022-12-23T10:33:42.000Z,3765.0
2022-12-23T10:34:42.000Z,3792.0
2022-12-23T10:35:42.000Z,3805.0
2022-12-23T10:36:42.000Z,3790.0
2022-12-23T10:37:43.000Z,3676.0
2022-12-23T10:38:42.000Z,3738.0
2022-12-23T10:39:42.000Z,4185.0
2022-12-23T10:40:42.000Z,4372.0
2022-12-23T10:41:42.000Z,4433.0
2022-12-23T10:42:43.000Z,4571.0
2022-12-23T10:43:42.000Z,4804.0
2022-12-23T10:44:42.000Z,4706.0
2022-12-23T10:45:41.000Z,4754.0
2022-12-23T10:46:42.000Z,4451.0
2022-12-23T10:47:42.000Z,4281.0
2022-12-23T10:48:42.000Z,4375.0
2022-12-23T10:49:42.000Z,4225.0
2022-12-23T10:50:43.000Z,4135.0
2022-12-23T10:51:42.000Z,4069.0
2022-12-23T10:52:42.000Z,3995.0
2022-12-23T10:53:42.000Z,4093.0
2022-12-23T10:54:42.000Z,4218.0
2022-12-23T10:55:43.000Z,4218.0
2022-12-23T10:56:42.000Z,4132.0
2022-12-23T10:57:42.000Z,4221.0
2022-12-23T10:58:43.000Z,4134.0
2022-12-23T10:59:42.000Z,4115.0
2022-12-23T11:00:42.000Z,4266.0
2022-12-23T11:01:43.000Z,4530.0
2022-12-23T11:02:42.000Z,4465.0
2022-12-23T11:03:42.000Z,4566.0
2022-12-23T11:04:42.000Z,4614.0
2022-12-23T11:05:42.000Z,4801.0
2022-12-23T11:06:43.000Z,4950.0
2022-12-23T11:08:42.000Z,5361.0
2022-12-23T11:09:43.000Z,6237.0
2022-12-23T11:10:42.000Z,6792.0
2022-12-23T11:11:42.000Z,7027.0
2022-12-23T11:12:42.000Z,7384.0
2022-12-23T11:13:42.000Z,7480.0
2022-12-23T11:14:43.000Z,7505.0
2022-12-23T11:15:42.000Z,7277.0
2022-12-23T11:16:42.000Z,6801.0
2022-12-23T11:17:42.000Z,6339.0
2022-12-23T11:18:42.000Z,5809.0
2022-12-23T11:19:43.000Z,5451.0
2022-12-23T11:20:42.000Z,5270.0
2022-12-23T11:21:42.000Z,4986.0
2022-12-23T11:22:43.000Z,4612.0
2022-12-23T11:23:42.000Z,4652.0
2022-12-23T11:24:42.000Z,4993.0
2022-12-23T11:25:42.000Z,5122.0
2022-12-23T11:26:42.000Z,5273.0
2022-12-23T11:27:43.000Z,5259.0
2022-12-23T11:28:42.000Z,5079.0
2022-12-23T11:29:42.000Z,4928.0
2022-12-23T11:30:42.000Z,4936.0
2022-12-23T11:31:42.000Z,5054.0
2022-12-23T11:32:43.000Z,4796.0
2022-12-23T11:33:42.000Z,5186.0
2022-12-23T11:34:42.000Z,5548.0
2022-12-23T11:35:43.000Z,5736.0
2022-12-23T11:36:42.000Z,6146.0
2022-12-23T11:37:42.000Z,6566.0
2022-12-23T11:38:42.000Z,6707.0
2022-12-23T11:39:42.000Z,7033.0
2022-12-23T11:40:43.000Z,6577.0
2022-12-23T11:41:42.000Z,7076.0
2022-12-23T11:42:42.000Z,7103.0
2022-12-23T11:43:42.000Z,7044.0
2022-12-23T11:44:42.000Z,6587.0
2022-12-23T11:45:42.000Z,6614.0
2022-12-23T11:46:42.000Z,6146.0
2022-12-23T11:47:42.000Z,6058.0
2022-12-23T11:48:43.000Z,5514.0
2022-12-23T11:49:42.000Z,5178.0
2022-12-23T11:50:42.000Z,4916.0
2022-12-23T11:51:42.000Z,4604.0
2022-12-23T11:52:42.000Z,4356.0
2022-12-23T11:53:43.000Z,4256.0
2022-12-23T11:54:42.000Z,4054.0
2022-12-23T11:55:42.000Z,4204.0
2022-12-23T11:56:41.000Z,4269.0
2022-12-23T11:57:42.000Z,4163.0
2022-12-23T11:58:43.000Z,4137.0
2022-12-23T11:59:41.000Z,4090.0
2022-12-23T12:00:42.000Z,3917.0
2022-12-23T12:01:42.000Z,4125.0
2022-12-23T12:02:42.000Z,4097.0
2022-12-23T12:03:42.000Z,4024.0
2022-12-23T12:04:43.000Z,4107.0
2022-12-23T12:05:42.000Z,4122.0
2022-12-23T12:06:42.000Z,4165.0
2022-12-23T12:07:41.000Z,4078.0
2022-12-23T12:08:42.000Z,4117.0
2022-12-23T12:09:43.000Z,3686.0
2022-12-23T12:10:42.000Z,3251.0
2022-12-23T12:11:42.000Z,3057.0
2022-12-23T12:12:43.000Z,2687.0
2022-12-23T12:13:42.000Z,2557.0
2022-12-23T12:14:42.000Z,2514.0
2022-12-23T12:15:42.000Z,2565.0
2022-12-23T12:16:42.000Z,2814.0
2022-12-23T12:17:43.000Z,2927.0
2022-12-23T12:18:42.000Z,3181.0
2022-12-23T12:19:42.000Z,3494.0
2022-12-23T12:20:42.000Z,3678.0
2022-12-23T12:21:42.000Z,3887.0
2022-12-23T12:22:42.000Z,3930.0
2022-12-23T12:23:42.000Z,3893.0
2022-12-23T12:24:42.000Z,3819.0
2022-12-23T12:25:43.000Z,3915.0
2022-12-23T12:26:42.000Z,3904.0
2022-12-23T12:27:42.000Z,3860.0
2022-12-23T12:28:42.000Z,3743.0
2022-12-23T12:29:42.000Z,3567.0
2022-12-23T12:30:43.000Z,3766.0
2022-12-23T12:31:42.000Z,3752.0
2022-12-23T12:32:42.000Z,3736.0